PGUA/UAM METAR and TAF weather

Enter ICAO airport designator
Station Type Date Time Source
PGUA METAR 2020/01/22 20:55 UTC NOAA

PGUA 222055Z 09018G24KT 10SM SCT007 SCT011 BKN016 BKN034 OVC044 24/22 A3003 RMK AO2A PK WND 10029/2054 SLP160 T02410218 $


Station Type Date Time Source
PGUA Decoded METAR 2020/01/22 20:55 UTC NOAA

Andersen, Mariana Is, Andersen Air Force Base, GU, United States (PGUA) 13-35N 144-56E 187M
Jan 22, 2020 - 03:55 PM EST / 2020.01.22 2055 UTC
Wind: from the E (090 degrees) at 21 MPH (18 KT) gusting to 28 MPH (24 KT):0
Visibility: 10 mile(s):0
Sky conditions: overcast
Temperature: 75.4 F (24.1 C)
Dew Point: 71.2 F (21.8 C)
Relative Humidity: 86%
Pressure (altimeter): 30.03 in. Hg (1016 hPa)
ob: PGUA 222055Z 09018G24KT 10SM SCT007 SCT011 BKN016 BKN034 OVC044 24/22 A3003 RMK AO2A PK WND 10029/2054 SLP160 T02410218
cycle: 21

Station Type Date Time Source
PGUA TAF 2020/01/22 18:09 UTC NOAA

TAF TAF PGUA 221800Z 2218/2324 07015G20KT 9999 SCT010 BKN015 BKN030 QNH2996INS
TEMPO 2218/2224 07020G25KT 8000 -SHRA BKN010
BECMG 2300/2302 07015G20KT 9999 SCT015 BKN030 QNH2996INS TX27/2306Z TN23/2220Z

Example: see airport list